Time;durP1;ratioP1;P1;durP2;ratioP2;P2;SDS_P1;SDS_P2;PMS_P1;PMS_P2;Temp;Humidity;BMP_temperature;BMP_pressure;BME280_temperature;BME280_humidity;BME280_pressure;Samples;Min_cycle;Max_cycle;Signal;HPM_P1;HPM_P2
2024/04/02 00:02:14;;;;;;;3.67;1.80;;;;;;;;;;12916641;23;20965;-81
2024/04/02 00:07:18;;;;;;;3.03;1.58;;;;;;;;;;12912984;23;20365;-81
2024/04/02 00:12:21;;;;;;;4.63;1.70;;;;;;;;;;12914177;23;20419;-81
2024/04/02 00:17:23;;;;;;;5.30;2.35;;;;;;;;;;12913088;23;20360;-81
2024/04/02 00:22:27;;;;;;;6.53;2.03;;;;;;;;;;12915474;23;20384;-81
2024/04/02 00:27:30;;;;;;;4.73;2.10;;;;;;;;;;12915553;23;20403;-80
2024/04/02 00:32:33;;;;;;;4.32;1.85;;;;;;;;;;12913290;23;20665;-80
2024/04/02 00:37:37;;;;;;;4.75;2.25;;;;;;;;;;12913990;23;20372;-81
2024/04/02 00:42:39;;;;;;;4.80;2.23;;;;;;;;;;12911786;23;20407;-81
2024/04/02 00:47:42;;;;;;;3.30;2.20;;;;;;;;;;12910162;23;20824;-81
2024/04/02 00:52:46;;;;;;;6.03;2.50;;;;;;;;;;12910593;23;20372;-81
2024/04/02 00:57:50;;;;;;;6.68;3.00;;;;;;;;;;12911498;23;20755;-81
2024/04/02 01:02:52;;;;;;;7.47;3.13;;;;;;;;;;12915185;23;20442;-81
2024/04/02 01:07:56;;;;;;;3.45;2.90;;;;;;;;;;12915202;23;20368;-81
2024/04/02 01:12:59;;;;;;;4.87;2.57;;;;;;;;;;12914211;23;20420;-81
2024/04/02 01:18:02;;;;;;;4.80;2.60;;;;;;;;;;12914025;23;20395;-80
2024/04/02 01:23:06;;;;;;;5.03;2.87;;;;;;;;;;12913482;23;20471;-80
2024/04/02 01:28:10;;;;;;;4.80;3.10;;;;;;;;;;12913385;23;20391;-80
2024/04/02 01:33:14;;;;;;;4.77;2.83;;;;;;;;;;12916233;23;20682;-80
2024/04/02 01:38:16;;;;;;;7.80;3.70;;;;;;;;;;12914184;23;20443;-81
2024/04/02 01:43:20;;;;;;;7.73;3.23;;;;;;;;;;12913710;23;20381;-81
2024/04/02 01:48:23;;;;;;;6.50;3.67;;;;;;;;;;12913715;23;20368;-81
2024/04/02 01:53:25;;;;;;;6.05;3.40;;;;;;;;;;12914026;23;20380;-81
2024/04/02 01:58:29;;;;;;;6.32;3.38;;;;;;;;;;12914620;23;20372;-80
2024/04/02 02:03:31;;;;;;;6.22;3.35;;;;;;;;;;12915009;22;20623;-80
2024/04/02 02:08:34;;;;;;;6.57;3.13;;;;;;;;;;12917691;23;20373;-81
2024/04/02 02:13:40;;;;;;;5.32;3.50;;;;;;;;;;12914006;23;20395;-80
2024/04/02 02:18:42;;;;;;;7.10;3.40;;;;;;;;;;12937709;23;20410;-80
2024/04/02 02:23:46;;;;;;;5.03;3.27;;;;;;;;;;12918492;23;20388;-81
2024/04/02 02:28:50;;;;;;;6.15;3.13;;;;;;;;;;12917924;23;20414;-80
2024/04/02 02:33:53;;;;;;;5.30;3.08;;;;;;;;;;12919562;23;20364;-81
2024/04/02 02:38:55;;;;;;;5.50;3.28;;;;;;;;;;12918221;23;20902;-80
2024/04/02 02:44:01;;;;;;;4.57;2.95;;;;;;;;;;12917723;23;20384;-80
2024/04/02 02:49:03;;;;;;;6.03;3.17;;;;;;;;;;12918013;23;20689;-80
2024/04/02 02:54:06;;;;;;;5.37;3.53;;;;;;;;;;12918215;23;20674;-81
2024/04/02 02:59:10;;;;;;;4.00;3.15;;;;;;;;;;12917299;23;20376;-81
2024/04/02 03:04:12;;;;;;;6.93;2.80;;;;;;;;;;12916463;23;20440;-80
2024/04/02 03:09:15;;;;;;;3.93;2.70;;;;;;;;;;12916621;23;20368;-80
2024/04/02 03:14:19;;;;;;;4.00;2.80;;;;;;;;;;12916548;23;20365;-80
2024/04/02 03:19:21;;;;;;;6.43;3.00;;;;;;;;;;12917043;23;20391;-80
2024/04/02 03:24:24;;;;;;;7.35;3.45;;;;;;;;;;12917730;23;20380;-81
2024/04/02 03:29:28;;;;;;;5.97;3.55;;;;;;;;;;12919723;23;20368;-82
2024/04/02 03:34:30;;;;;;;6.37;4.10;;;;;;;;;;12916086;23;20368;-79
2024/04/02 03:39:34;;;;;;;7.07;4.50;;;;;;;;;;12917630;23;20364;-80
2024/04/02 03:44:37;;;;;;;8.77;4.63;;;;;;;;;;12915793;23;20392;-80
2024/04/02 03:49:40;;;;;;;8.07;4.38;;;;;;;;;;12917553;23;20364;-80
2024/04/02 03:54:43;;;;;;;5.45;3.80;;;;;;;;;;12916856;23;20361;-81
2024/04/02 03:59:47;;;;;;;5.38;3.90;;;;;;;;;;12915811;23;20365;-80
2024/04/02 04:04:49;;;;;;;6.90;4.13;;;;;;;;;;12916624;23;20434;-80
2024/04/02 04:09:52;;;;;;;6.50;3.75;;;;;;;;;;12916635;23;20364;-81
2024/04/02 04:14:56;;;;;;;7.13;4.07;;;;;;;;;;12915775;23;20736;-80
2024/04/02 04:19:58;;;;;;;8.87;4.40;;;;;;;;;;12914964;23;20426;-80
2024/04/02 04:25:02;;;;;;;5.10;4.47;;;;;;;;;;12918040;23;20431;-80
2024/04/02 04:30:07;;;;;;;7.90;4.53;;;;;;;;;;12914619;23;20426;-80
2024/04/02 04:35:09;;;;;;;7.85;4.30;;;;;;;;;;12915707;23;20744;-81
2024/04/02 04:40:12;;;;;;;7.45;4.47;;;;;;;;;;12915089;23;20407;-81
2024/04/02 04:45:16;;;;;;;6.63;4.38;;;;;;;;;;12913115;23;20384;-81
2024/04/02 04:50:18;;;;;;;6.43;4.30;;;;;;;;;;12913290;23;20369;-81
2024/04/02 04:55:21;;;;;;;6.70;4.47;;;;;;;;;;12915418;23;20365;-80
2024/04/02 05:00:25;;;;;;;7.22;3.85;;;;;;;;;;12914806;23;20368;-82
2024/04/02 05:05:27;;;;;;;6.93;5.53;;;;;;;;;;12915197;23;20465;-81
2024/04/02 05:10:30;;;;;;;6.00;3.92;;;;;;;;;;12913996;23;20377;-81
2024/04/02 05:15:33;;;;;;;5.63;3.50;;;;;;;;;;12915205;23;20414;-81
2024/04/02 05:20:36;;;;;;;5.28;3.53;;;;;;;;;;12916916;23;20479;-80
2024/04/02 05:25:39;;;;;;;5.60;3.50;;;;;;;;;;12914102;23;20384;-80
2024/04/02 05:30:42;;;;;;;7.05;4.38;;;;;;;;;;12913371;23;20399;-80
2024/04/02 05:35:46;;;;;;;7.22;4.55;;;;;;;;;;12914556;23;20418;-80
2024/04/02 05:40:48;;;;;;;6.30;4.60;;;;;;;;;;12913625;23;20369;-79
2024/04/02 05:45:52;;;;;;;8.07;5.07;;;;;;;;;;12912432;23;20546;-80
2024/04/02 05:50:55;;;;;;;7.57;4.00;;;;;;;;;;12934721;23;20460;-80
2024/04/02 05:55:59;;;;;;;6.47;4.47;;;;;;;;;;12912970;23;20364;-80
2024/04/02 06:01:05;;;;;;;5.97;3.95;;;;;;;;;;12912388;23;20368;-80
2024/04/02 06:06:07;;;;;;;7.70;4.07;;;;;;;;;;12911997;23;20380;-82
2024/04/02 06:11:10;;;;;;;7.35;4.50;;;;;;;;;;12913672;23;20365;-82
2024/04/02 06:16:13;;;;;;;6.00;3.65;;;;;;;;;;12912930;23;20418;-82
2024/04/02 06:21:17;;;;;;;7.77;3.53;;;;;;;;;;12915698;23;20377;-82
2024/04/02 06:26:20;;;;;;;4.77;2.80;;;;;;;;;;12913973;23;20846;-82
2024/04/02 06:31:24;;;;;;;4.83;3.13;;;;;;;;;;12912992;23;20697;-82
2024/04/02 06:36:27;;;;;;;5.60;2.80;;;;;;;;;;12912617;23;20430;-82
2024/04/02 06:41:29;;;;;;;6.83;2.63;;;;;;;;;;12913011;23;20368;-82
2024/04/02 06:46:33;;;;;;;3.73;2.27;;;;;;;;;;12913091;23;20384;-81
2024/04/02 06:51:35;;;;;;;5.22;2.40;;;;;;;;;;12914822;23;20365;-81
2024/04/02 06:56:38;;;;;;;4.38;1.83;;;;;;;;;;12916462;23;20693;-81
2024/04/02 07:01:42;;;;;;;4.90;1.92;;;;;;;;;;12916437;23;20423;-81
2024/04/02 07:06:44;;;;;;;3.67;2.10;;;;;;;;;;12916510;23;20368;-82
2024/04/02 07:11:47;;;;;;;3.83;2.10;;;;;;;;;;12916509;23;20372;-82
2024/04/02 07:16:53;;;;;;;3.10;2.20;;;;;;;;;;12918363;23;20845;-82
2024/04/02 07:21:55;;;;;;;5.40;3.53;;;;;;;;;;12914188;23;20360;-82
2024/04/02 07:26:58;;;;;;;5.33;4.00;;;;;;;;;;12916021;23;20372;-82
2024/04/02 07:32:01;;;;;;;7.53;4.00;;;;;;;;;;12916108;23;20430;-81
2024/04/02 07:37:04;;;;;;;7.15;4.63;;;;;;;;;;12916727;23;20418;-82
2024/04/02 07:42:06;;;;;;;6.20;4.22;;;;;;;;;;12915179;23;20426;-80
2024/04/02 07:47:10;;;;;;;4.70;3.58;;;;;;;;;;12916378;23;20376;-82
2024/04/02 07:52:14;;;;;;;9.13;4.13;;;;;;;;;;12916022;23;20419;-82
2024/04/02 07:57:16;;;;;;;7.90;4.07;;;;;;;;;;12918795;23;20466;-81
2024/04/02 08:02:20;;;;;;;5.80;3.90;;;;;;;;;;12923567;23;20365;-82
2024/04/02 08:07:23;;;;;;;7.43;4.40;;;;;;;;;;12916468;23;20414;-82
2024/04/02 08:12:26;;;;;;;5.83;4.43;;;;;;;;;;12915061;23;20909;-82
2024/04/02 08:17:30;;;;;;;4.50;3.70;;;;;;;;;;12919056;23;20361;-82
2024/04/02 08:22:32;;;;;;;6.50;3.78;;;;;;;;;;12935881;23;20376;-82
2024/04/02 08:27:35;;;;;;;6.40;3.50;;;;;;;;;;12909205;23;20369;-82
2024/04/02 08:32:39;;;;;;;5.73;3.30;;;;;;;;;;12912318;23;20369;-82
2024/04/02 08:37:59;;;;;;;5.55;3.30;;;;;;;;;;12913019;23;20426;-82
2024/04/02 08:43:15;;;;;;;6.10;3.60;;;;;;;;;;12909037;23;20384;-82
2024/04/02 08:48:28;;;;;;;6.47;4.03;;;;;;;;;;12904853;23;20390;-83
2024/04/02 08:53:30;;;;;;;4.63;3.22;;;;;;;;;;12905147;23;20896;-83
2024/04/02 08:58:34;;;;;;;8.73;4.93;;;;;;;;;;12910674;23;20404;-82
2024/04/02 09:03:39;;;;;;;5.82;3.70;;;;;;;;;;12913896;23;20385;-82
2024/04/02 09:08:45;;;;;;;6.32;4.35;;;;;;;;;;12915588;23;20422;-82
2024/04/02 09:13:48;;;;;;;5.55;3.47;;;;;;;;;;12912797;23;20364;-83
2024/04/02 09:18:52;;;;;;;5.88;2.97;;;;;;;;;;12919546;23;20365;-82
2024/04/02 09:23:55;;;;;;;4.70;3.15;;;;;;;;;;12912980;23;20686;-82
2024/04/02 09:28:57;;;;;;;8.98;3.30;;;;;;;;;;12912129;23;20373;-83
2024/04/02 09:34:06;;;;;;;4.10;2.83;;;;;;;;;;12912975;22;20376;-80
2024/04/02 09:39:11;;;;;;;4.83;3.20;;;;;;;;;;12913146;23;20368;-81
2024/04/02 09:44:16;;;;;;;4.30;2.50;;;;;;;;;;12912928;23;20384;-81
2024/04/02 09:49:20;;;;;;;4.60;3.33;;;;;;;;;;12913672;23;20372;-81
2024/04/02 09:54:25;;;;;;;5.38;3.15;;;;;;;;;;12912523;23;20376;-81
2024/04/02 09:59:27;;;;;;;4.63;3.45;;;;;;;;;;12912433;23;20360;-81
2024/04/02 10:04:31;;;;;;;4.60;2.85;;;;;;;;;;12911907;23;20442;-81
2024/04/02 10:09:42;;;;;;;7.60;3.85;;;;;;;;;;12911950;23;20368;-81
2024/04/02 10:14:45;;;;;;;4.28;2.45;;;;;;;;;;12911573;23;20364;-81
2024/04/02 10:19:50;;;;;;;5.05;2.30;;;;;;;;;;12906535;23;20372;-79
2024/04/02 10:25:05;;;;;;;6.10;2.63;;;;;;;;;;12908829;23;20411;-80
2024/04/02 10:30:16;;;;;;;5.65;3.08;;;;;;;;;;12933124;23;20664;-79
2024/04/02 10:35:24;;;;;;;4.50;2.20;;;;;;;;;;12911223;23;20462;-79
2024/04/02 10:40:31;;;;;;;4.55;2.08;;;;;;;;;;12913298;23;20360;-80
2024/04/02 10:45:33;;;;;;;4.83;3.30;;;;;;;;;;12912597;23;20434;-78
2024/04/02 10:50:37;;;;;;;4.80;3.08;;;;;;;;;;12906889;23;20395;-80
2024/04/02 10:55:40;;;;;;;3.10;1.70;;;;;;;;;;12907246;23;20422;-80
2024/04/02 11:00:42;;;;;;;2.30;1.90;;;;;;;;;;12909401;23;20364;-79
2024/04/02 11:05:48;;;;;;;3.13;1.90;;;;;;;;;;12910037;23;20380;-79
2024/04/02 11:10:50;;;;;;;3.60;1.80;;;;;;;;;;12906471;22;20384;-81
2024/04/02 11:15:53;;;;;;;2.23;1.43;;;;;;;;;;12906788;23;20425;-81
2024/04/02 11:21:01;;;;;;;2.67;1.40;;;;;;;;;;12909687;23;20380;-80
2024/04/02 11:26:09;;;;;;;2.47;1.87;;;;;;;;;;12925419;23;20384;-80
2024/04/02 11:31:12;;;;;;;2.90;1.50;;;;;;;;;;12920901;23;20364;-79
2024/04/02 11:36:16;;;;;;;2.00;1.80;;;;;;;;;;12906244;23;21047;-79
2024/04/02 11:41:18;;;;;;;2.53;1.70;;;;;;;;;;12894822;23;20815;-79
2024/04/02 11:46:21;;;;;;;1.70;1.60;;;;;;;;;;12907470;23;20388;-80
2024/04/02 11:51:24;;;;;;;2.13;1.48;;;;;;;;;;12908914;23;20426;-80
2024/04/02 12:00:01;;;;;;;1.83;1.40;;;;;;;;;;12905870;23;20376;-80
2024/04/02 12:01:49;;;;;;;2.08;1.20;;;;;;;;;;12903732;23;20455;-81
2024/04/02 12:06:57;;;;;;;4.35;1.63;;;;;;;;;;12901025;23;20389;-80
2024/04/02 12:11:59;;;;;;;2.40;1.50;;;;;;;;;;12902968;23;20376;-81
2024/04/02 12:17:02;;;;;;;4.00;1.50;;;;;;;;;;12895159;23;20380;-80
2024/04/02 12:22:06;;;;;;;3.00;1.88;;;;;;;;;;12916545;23;20794;-81
2024/04/02 12:27:08;;;;;;;2.40;1.40;;;;;;;;;;12903515;23;20380;-81
2024/04/02 12:32:11;;;;;;;2.30;1.90;;;;;;;;;;12903575;23;20376;-81
2024/04/02 12:37:16;;;;;;;3.30;2.03;;;;;;;;;;12906035;23;20438;-81
2024/04/02 12:42:19;;;;;;;2.40;1.67;;;;;;;;;;12904320;23;20748;-81
2024/04/02 12:47:23;;;;;;;2.53;1.70;;;;;;;;;;12905038;23;20704;-81
2024/04/02 12:52:27;;;;;;;2.80;2.00;;;;;;;;;;12906561;23;20384;-80
2024/04/02 12:57:29;;;;;;;2.92;1.83;;;;;;;;;;12912174;23;20674;-80
2024/04/02 13:02:32;;;;;;;3.83;1.60;;;;;;;;;;12909149;23;20368;-81
2024/04/02 13:07:40;;;;;;;2.53;1.73;;;;;;;;;;12910199;23;20439;-81
2024/04/02 13:12:42;;;;;;;3.47;1.70;;;;;;;;;;12910869;23;20917;-81
2024/04/02 13:17:45;;;;;;;2.28;1.60;;;;;;;;;;12910665;23;20402;-80
2024/04/02 13:22:49;;;;;;;4.07;1.70;;;;;;;;;;12911801;23;20360;-80
2024/04/02 13:27:52;;;;;;;3.90;1.98;;;;;;;;;;12931949;23;20372;-80
2024/04/02 13:32:56;;;;;;;2.72;1.85;;;;;;;;;;12909939;23;20438;-81
2024/04/02 13:38:00;;;;;;;3.88;2.00;;;;;;;;;;12909836;23;20711;-78
2024/04/02 13:43:03;;;;;;;2.80;1.73;;;;;;;;;;12900462;23;20364;-80
2024/04/02 13:48:06;;;;;;;5.03;1.90;;;;;;;;;;12925424;23;20451;-80
2024/04/02 13:53:10;;;;;;;3.08;2.08;;;;;;;;;;12905647;23;20376;-79
2024/04/02 13:58:12;;;;;;;3.65;2.10;;;;;;;;;;12907709;23;20422;-81
2024/04/02 14:03:15;;;;;;;3.87;1.80;;;;;;;;;;12906879;23;20421;-81
2024/04/02 14:08:19;;;;;;;2.10;1.60;;;;;;;;;;12915303;23;20437;-79
2024/04/02 14:13:22;;;;;;;3.45;1.75;;;;;;;;;;12915364;23;20403;-80
2024/04/02 14:18:25;;;;;;;2.35;1.67;;;;;;;;;;12909612;23;20364;-78
2024/04/02 14:23:30;;;;;;;2.80;1.83;;;;;;;;;;12914914;23;20364;-78
2024/04/02 14:28:33;;;;;;;4.28;1.80;;;;;;;;;;12911578;23;20388;-80
2024/04/02 14:33:36;;;;;;;2.00;1.80;;;;;;;;;;12913071;23;20371;-81
2024/04/02 14:38:40;;;;;;;3.67;1.80;;;;;;;;;;12914243;23;20372;-81
2024/04/02 14:43:43;;;;;;;3.60;1.83;;;;;;;;;;12906569;23;20441;-80
2024/04/02 14:48:47;;;;;;;2.92;1.90;;;;;;;;;;12908713;23;20380;-83
2024/04/02 14:53:51;;;;;;;3.88;1.90;;;;;;;;;;12906036;23;20425;-81
2024/04/02 14:58:53;;;;;;;2.67;1.63;;;;;;;;;;12908818;23;20368;-81
2024/04/02 15:03:56;;;;;;;3.45;1.70;;;;;;;;;;12908293;23;20368;-80
2024/04/02 15:09:01;;;;;;;3.30;1.70;;;;;;;;;;12909814;23;20485;-80
2024/04/02 15:14:03;;;;;;;2.97;1.70;;;;;;;;;;12901629;23;20391;-81
2024/04/02 15:19:06;;;;;;;4.53;1.90;;;;;;;;;;12909681;23;20368;-82
2024/04/02 15:24:11;;;;;;;3.95;1.83;;;;;;;;;;12908863;23;20454;-81
2024/04/02 15:29:14;;;;;;;3.77;1.43;;;;;;;;;;12910767;23;20364;-81
2024/04/02 15:34:16;;;;;;;3.15;1.40;;;;;;;;;;12911173;23;20852;-81
2024/04/02 15:39:20;;;;;;;2.10;1.23;;;;;;;;;;12912893;23;20398;-82
2024/04/02 15:44:22;;;;;;;5.35;1.20;;;;;;;;;;12910609;23;20364;-81
2024/04/02 15:49:25;;;;;;;0.80;0.60;;;;;;;;;;12912705;23;20450;-81
2024/04/02 15:54:29;;;;;;;14.03;2.00;;;;;;;;;;12914371;23;20395;-81
2024/04/02 15:59:32;;;;;;;2.13;0.70;;;;;;;;;;12914182;23;20364;-82
2024/04/02 16:04:34;;;;;;;2.53;0.82;;;;;;;;;;12905130;22;20368;-83
2024/04/02 16:09:38;;;;;;;2.70;0.55;;;;;;;;;;12907169;23;20407;-82
2024/04/02 16:14:40;;;;;;;1.13;0.50;;;;;;;;;;12907118;23;20376;-82
2024/04/02 16:19:43;;;;;;;2.50;0.50;;;;;;;;;;12912535;23;21202;-82
2024/04/02 16:24:48;;;;;;;2.20;0.70;;;;;;;;;;12906651;23;20384;-82
2024/04/02 16:29:50;;;;;;;1.38;0.38;;;;;;;;;;12915621;23;20426;-81
2024/04/02 16:34:53;;;;;;;2.83;1.10;;;;;;;;;;12905863;23;20380;-80
2024/04/02 16:39:58;;;;;;;2.10;0.60;;;;;;;;;;12905567;23;20380;-80
2024/04/02 16:45:01;;;;;;;3.60;0.70;;;;;;;;;;12906982;23;20377;-81
2024/04/02 16:50:03;;;;;;;2.88;1.30;;;;;;;;;;12905278;23;20540;-81
2024/04/02 16:55:09;;;;;;;2.45;1.77;;;;;;;;;;12900894;23;20437;-79
2024/04/02 17:00:13;;;;;;;4.03;1.90;;;;;;;;;;12904700;23;20368;-80
2024/04/02 17:05:16;;;;;;;5.63;2.03;;;;;;;;;;12905063;23;20376;-80
2024/04/02 17:10:20;;;;;;;4.47;2.10;;;;;;;;;;12904993;23;20407;-80
2024/04/02 17:15:22;;;;;;;6.90;2.33;;;;;;;;;;12903493;23;20461;-79
2024/04/02 17:20:25;;;;;;;7.00;3.00;;;;;;;;;;12899176;23;20422;-80
2024/04/02 17:25:29;;;;;;;5.85;3.08;;;;;;;;;;12902271;23;20387;-80
2024/04/02 17:30:31;;;;;;;5.50;2.50;;;;;;;;;;12902921;23;20409;-80
2024/04/02 17:35:33;;;;;;;3.83;2.22;;;;;;;;;;12899927;23;20417;-80
2024/04/02 17:40:37;;;;;;;4.78;3.20;;;;;;;;;;12896716;23;20430;-80
2024/04/02 17:45:40;;;;;;;5.97;3.72;;;;;;;;;;12898222;23;20434;-80
2024/04/02 17:50:42;;;;;;;6.27;3.20;;;;;;;;;;12900839;23;20380;-80
2024/04/02 17:55:46;;;;;;;5.43;3.97;;;;;;;;;;12902672;23;20447;-81
2024/04/02 18:00:50;;;;;;;7.23;3.57;;;;;;;;;;12903490;23;20365;-79
2024/04/02 18:05:59;;;;;;;6.50;3.57;;;;;;;;;;12905217;23;20756;-80
2024/04/02 18:11:05;;;;;;;7.70;4.30;;;;;;;;;;12904406;23;21004;-80
2024/04/02 18:16:07;;;;;;;5.23;3.50;;;;;;;;;;12905083;23;20429;-80
2024/04/02 18:21:10;;;;;;;4.45;3.30;;;;;;;;;;12904436;23;20414;-79
2024/04/02 18:26:14;;;;;;;6.35;3.45;;;;;;;;;;12903868;23;20763;-80
2024/04/02 18:31:16;;;;;;;6.90;4.03;;;;;;;;;;12904914;23;20449;-80
2024/04/02 18:36:22;;;;;;;9.17;4.40;;;;;;;;;;12904622;23;20380;-80
2024/04/02 18:41:26;;;;;;;7.33;4.17;;;;;;;;;;12906258;23;20705;-79
2024/04/02 18:46:29;;;;;;;5.40;3.63;;;;;;;;;;12905722;23;20709;-78
2024/04/02 18:51:31;;;;;;;7.82;4.43;;;;;;;;;;12922290;23;20913;-80
2024/04/02 18:56:35;;;;;;;9.00;4.63;;;;;;;;;;12905536;23;20380;-81
2024/04/02 19:01:38;;;;;;;5.75;3.90;;;;;;;;;;12905982;23;20836;-80
2024/04/02 19:06:40;;;;;;;3.50;2.10;;;;;;;;;;12900482;23;20437;-79
2024/04/02 19:11:44;;;;;;;2.28;1.17;;;;;;;;;;12900007;23;20823;-78
2024/04/02 19:16:48;;;;;;;1.85;0.82;;;;;;;;;;12902697;23;20380;-80
2024/04/02 19:21:50;;;;;;;1.15;1.00;;;;;;;;;;12906590;23;20430;-80
2024/04/02 19:26:54;;;;;;;2.10;1.02;;;;;;;;;;12906329;23;20411;-81
2024/04/02 19:31:56;;;;;;;2.57;1.13;;;;;;;;;;12900728;23;20856;-79
2024/04/02 19:36:59;;;;;;;2.08;1.00;;;;;;;;;;12912345;23;20402;-79
2024/04/02 19:42:03;;;;;;;1.83;1.27;;;;;;;;;;12904289;23;20701;-79
2024/04/02 19:47:06;;;;;;;3.47;1.52;;;;;;;;;;12902451;23;20384;-79
2024/04/02 19:52:08;;;;;;;2.13;1.27;;;;;;;;;;12901590;23;20384;-79
2024/04/02 19:57:12;;;;;;;3.85;1.52;;;;;;;;;;12905389;23;20380;-79
2024/04/02 20:02:14;;;;;;;2.33;1.60;;;;;;;;;;12903168;23;20380;-80
2024/04/02 20:07:17;;;;;;;4.30;2.28;;;;;;;;;;12905336;23;20380;-80
2024/04/02 20:12:21;;;;;;;3.35;2.35;;;;;;;;;;12905119;23;20368;-78
2024/04/02 20:17:24;;;;;;;2.92;1.63;;;;;;;;;;12901108;23;20881;-81
2024/04/02 20:22:26;;;;;;;2.75;1.65;;;;;;;;;;12901116;23;20679;-81
2024/04/02 20:27:32;;;;;;;1.83;1.55;;;;;;;;;;12903505;23;20392;-81
2024/04/02 20:32:36;;;;;;;1.73;1.40;;;;;;;;;;12904835;23;20384;-81
2024/04/02 20:37:38;;;;;;;1.67;1.40;;;;;;;;;;12904722;23;20388;-81
2024/04/02 20:42:42;;;;;;;2.05;1.40;;;;;;;;;;12906378;23;20380;-82
2024/04/02 20:47:45;;;;;;;3.33;1.90;;;;;;;;;;12906095;23;20480;-82
2024/04/02 20:52:47;;;;;;;4.88;2.28;;;;;;;;;;12907115;23;20402;-81
2024/04/02 20:57:51;;;;;;;4.47;2.85;;;;;;;;;;12905447;23;20380;-81
2024/04/02 21:02:54;;;;;;;5.10;3.20;;;;;;;;;;12906151;23;20450;-82
2024/04/02 21:07:56;;;;;;;5.20;3.35;;;;;;;;;;12905338;23;20396;-81
2024/04/02 21:13:01;;;;;;;6.30;2.93;;;;;;;;;;12905311;23;20402;-81
2024/04/02 21:18:04;;;;;;;3.53;2.30;;;;;;;;;;12903010;23;20433;-81
2024/04/02 21:23:06;;;;;;;3.85;2.72;;;;;;;;;;12905796;23;20376;-81
2024/04/02 21:28:10;;;;;;;4.15;2.40;;;;;;;;;;12906643;23;20392;-82
2024/04/02 21:33:13;;;;;;;5.97;3.00;;;;;;;;;;12905698;23;20376;-80
2024/04/02 21:38:15;;;;;;;3.23;2.93;;;;;;;;;;12905576;23;20407;-81
2024/04/02 21:43:19;;;;;;;3.53;2.90;;;;;;;;;;12906961;23;20423;-80
2024/04/02 21:48:21;;;;;;;4.15;3.05;;;;;;;;;;12903690;23;20414;-81
2024/04/02 21:53:24;;;;;;;3.75;3.10;;;;;;;;;;12906022;23;20377;-81
2024/04/02 21:58:28;;;;;;;4.68;3.00;;;;;;;;;;12908850;23;20928;-81
2024/04/02 22:03:30;;;;;;;3.72;2.90;;;;;;;;;;12913517;23;20442;-81
2024/04/02 22:08:34;;;;;;;4.77;2.63;;;;;;;;;;12912098;23;21035;-81
2024/04/02 22:13:38;;;;;;;3.10;2.50;;;;;;;;;;12912161;23;20418;-81
2024/04/02 22:18:40;;;;;;;3.80;2.33;;;;;;;;;;12913127;23;20360;-81
2024/04/02 22:23:43;;;;;;;3.10;2.20;;;;;;;;;;12914593;23;20403;-81
2024/04/02 22:28:47;;;;;;;2.88;2.17;;;;;;;;;;12915438;23;20438;-81
2024/04/02 22:33:50;;;;;;;2.85;2.30;;;;;;;;;;12916014;23;20665;-81
2024/04/02 22:38:52;;;;;;;2.05;1.85;;;;;;;;;;12916653;23;20924;-80
2024/04/02 22:43:56;;;;;;;3.05;2.10;;;;;;;;;;12915156;23;20368;-80
2024/04/02 22:48:59;;;;;;;3.40;1.67;;;;;;;;;;12914893;23;20489;-81
2024/04/02 22:54:02;;;;;;;1.90;1.67;;;;;;;;;;12916155;23;20387;-81
2024/04/02 22:59:06;;;;;;;2.00;1.65;;;;;;;;;;12916201;23;20890;-81
2024/04/02 23:04:08;;;;;;;2.55;1.65;;;;;;;;;;12915006;23;20422;-81
2024/04/02 23:09:11;;;;;;;2.08;1.60;;;;;;;;;;12936195;23;20376;-81
2024/04/02 23:14:15;;;;;;;2.72;1.67;;;;;;;;;;12914994;23;20365;-81
2024/04/02 23:19:18;;;;;;;2.08;1.67;;;;;;;;;;12916673;23;20431;-80
2024/04/02 23:24:20;;;;;;;3.17;1.80;;;;;;;;;;12915514;23;20390;-81
2024/04/02 23:29:24;;;;;;;2.47;1.60;;;;;;;;;;12916032;23;20411;-81
2024/04/02 23:34:26;;;;;;;1.98;1.70;;;;;;;;;;12913231;23;20372;-81
2024/04/02 23:39:29;;;;;;;2.30;1.60;;;;;;;;;;12915948;23;20595;-81
2024/04/02 23:44:33;;;;;;;1.60;1.50;;;;;;;;;;12915602;23;20356;-81
2024/04/02 23:49:36;;;;;;;3.65;1.80;;;;;;;;;;12912978;23;20380;-81
2024/04/02 23:54:38;;;;;;;2.23;2.00;;;;;;;;;;12912961;23;20395;-80
2024/04/02 23:59:42;;;;;;;2.38;1.60;;;;;;;;;;12913298;23;20433;-80
